Time;durP1;ratioP1;P1;durP2;ratioP2;P2;SDS_P1;SDS_P2;PMS_P1;PMS_P2;Temp;Humidity;BMP_temperature;BMP_pressure;BME280_temperature;BME280_humidity;BME280_pressure;Samples;Min_cycle;Max_cycle;Signal;HPM_P1;HPM_P2
2023/07/29 00:00:39;;;;;;;0.50;0.30;;;18.30;99.90;;;;;;5056618;28;20469;-81
2023/07/29 00:03:07;;;;;;;0.50;0.40;;;18.30;99.90;;;;;;5059766;28;20440;-81
2023/07/29 00:05:34;;;;;;;0.50;0.30;;;18.30;99.90;;;;;;5060877;28;20908;-81
2023/07/29 00:08:01;;;;;;;0.50;0.30;;;18.30;99.90;;;;;;5063982;28;20587;-81
2023/07/29 00:10:28;;;;;;;0.50;0.30;;;18.30;99.90;;;;;;5056741;28;21076;-81
2023/07/29 00:12:55;;;;;;;0.50;0.30;;;18.30;99.90;;;;;;5056526;28;20481;-81
2023/07/29 00:15:21;;;;;;;0.50;0.30;;;18.30;99.90;;;;;;5056169;28;20513;-81
2023/07/29 00:17:48;;;;;;;0.50;0.30;;;18.30;99.90;;;;;;5056829;28;20431;-79
2023/07/29 00:20:17;;;;;;;0.50;0.30;;;18.30;99.90;;;;;;5056720;28;20532;-81
2023/07/29 00:22:44;;;;;;;0.50;0.40;;;18.30;99.90;;;;;;5055812;28;20460;-80
2023/07/29 00:25:10;;;;;;;0.50;0.40;;;18.30;99.90;;;;;;5058225;28;20436;-80
2023/07/29 00:27:37;;;;;;;0.50;0.30;;;18.30;99.90;;;;;;5060068;28;20444;-80
2023/07/29 00:30:05;;;;;;;0.50;0.30;;;18.30;99.90;;;;;;5057935;28;20484;-81
2023/07/29 00:32:32;;;;;;;0.50;0.30;;;18.30;99.90;;;;;;5057181;28;20468;-81
2023/07/29 00:35:00;;;;;;;0.50;0.30;;;18.20;99.90;;;;;;5064340;28;20449;-82
2023/07/29 00:37:28;;;;;;;0.50;0.30;;;18.20;99.90;;;;;;5057250;28;20478;-81
2023/07/29 00:39:55;;;;;;;0.50;0.40;;;18.10;99.90;;;;;;5057266;28;20825;-81
2023/07/29 00:42:22;;;;;;;0.50;0.30;;;18.20;99.90;;;;;;5059978;28;20446;-81
2023/07/29 00:44:49;;;;;;;0.50;0.30;;;18.20;99.90;;;;;;5060195;28;20441;-80
2023/07/29 00:47:16;;;;;;;0.50;0.30;;;18.10;99.90;;;;;;5048124;28;20508;-81
2023/07/29 00:49:45;;;;;;;0.50;0.50;;;18.20;99.90;;;;;;5056634;28;20477;-81
2023/07/29 00:52:12;;;;;;;0.50;0.30;;;18.20;99.90;;;;;;5058119;28;20446;-80
2023/07/29 00:54:40;;;;;;;0.50;0.30;;;18.20;99.90;;;;;;5059886;28;20511;-78
2023/07/29 00:57:09;;;;;;;0.50;0.30;;;18.20;99.90;;;;;;5057270;28;20445;-80
2023/07/29 00:59:36;;;;;;;0.50;0.40;;;18.20;99.90;;;;;;5056154;28;20461;-81
2023/07/29 01:02:04;;;;;;;0.50;0.40;;;18.20;99.90;;;;;;5057962;28;20480;-81
2023/07/29 01:04:31;;;;;;;0.50;0.30;;;18.20;99.90;;;;;;5062718;28;20437;-80
2023/07/29 01:07:08;;;;;;;0.50;0.40;;;18.20;99.90;;;;;;5056893;28;20446;-81
2023/07/29 01:09:40;;;;;;;0.50;0.30;;;18.20;99.90;;;;;;5059565;28;20562;-81
2023/07/29 01:12:15;;;;;;;0.50;0.40;;;18.20;99.90;;;;;;5059332;28;20448;-81
2023/07/29 01:14:49;;;;;;;0.50;0.40;;;18.20;99.90;;;;;;5059739;28;20447;-81
2023/07/29 01:17:23;;;;;;;0.50;0.30;;;18.20;99.90;;;;;;5055697;28;20452;-80
2023/07/29 01:19:59;;;;;;;0.40;0.30;;;18.30;99.90;;;;;;5055824;28;20571;-81
2023/07/29 01:22:26;;;;;;;0.50;0.40;;;18.30;99.90;;;;;;5059282;28;20442;-80
2023/07/29 01:24:55;;;;;;;0.50;0.47;;;18.30;99.90;;;;;;5059036;28;20450;-79
2023/07/29 01:27:21;;;;;;;0.50;0.37;;;18.40;99.90;;;;;;5051674;28;20440;-81
2023/07/29 01:29:48;;;;;;;0.40;0.30;;;18.40;99.90;;;;;;5059280;28;20533;-81
2023/07/29 01:32:20;;;;;;;0.50;0.30;;;18.50;99.90;;;;;;5059181;28;20534;-81
2023/07/29 01:34:56;;;;;;;0.50;0.40;;;18.40;99.90;;;;;;5051110;28;20447;-80
2023/07/29 01:37:27;;;;;;;0.50;0.30;;;18.50;99.90;;;;;;5055999;28;20921;-81
2023/07/29 01:39:59;;;;;;;0.53;0.53;;;18.50;99.90;;;;;;5055617;28;20463;-81
2023/07/29 01:42:26;;;;;;;0.50;0.30;;;18.50;99.90;;;;;;5048012;28;20487;-82
2023/07/29 01:44:53;;;;;;;0.40;0.30;;;18.50;99.90;;;;;;5055237;28;20440;-79
2023/07/29 01:47:22;;;;;;;0.50;0.30;;;18.50;99.90;;;;;;5058811;28;20466;-81
2023/07/29 01:49:49;;;;;;;0.47;0.30;;;18.60;99.90;;;;;;5058378;28;20490;-81
2023/07/29 01:52:16;;;;;;;0.50;0.40;;;18.60;99.90;;;;;;5042109;22;20524;-77
2023/07/29 01:54:42;;;;;;;0.43;0.30;;;18.60;99.90;;;;;;5021528;28;20446;-78
2023/07/29 01:57:11;;;;;;;0.40;0.30;;;18.60;99.90;;;;;;5024544;28;20449;-79
2023/07/29 01:59:37;;;;;;;0.40;0.30;;;18.50;99.90;;;;;;5026257;28;20445;-78
2023/07/29 02:02:04;;;;;;;0.50;0.30;;;18.50;99.90;;;;;;5025172;28;20503;-78
2023/07/29 02:04:32;;;;;;;0.47;0.33;;;18.50;99.90;;;;;;5023921;28;20449;-78
2023/07/29 02:06:58;;;;;;;0.40;0.30;;;18.60;99.90;;;;;;5022243;28;20445;-76
2023/07/29 02:09:25;;;;;;;0.50;0.30;;;18.60;99.90;;;;;;5025747;28;20480;-78
2023/07/29 02:11:52;;;;;;;0.40;0.30;;;18.60;99.90;;;;;;5026229;28;20475;-77
2023/07/29 02:14:20;;;;;;;0.43;0.30;;;18.60;99.90;;;;;;5022418;28;20460;-79
2023/07/29 02:16:47;;;;;;;0.50;0.30;;;18.60;99.90;;;;;;5023357;28;20454;-79
2023/07/29 02:19:14;;;;;;;0.50;0.30;;;18.60;99.90;;;;;;5027445;28;20445;-78
2023/07/29 02:21:40;;;;;;;0.50;0.30;;;18.60;99.90;;;;;;5029558;28;20469;-78
2023/07/29 02:24:07;;;;;;;0.50;0.33;;;18.60;99.90;;;;;;5027774;28;20442;-78
2023/07/29 02:26:34;;;;;;;0.50;0.30;;;18.60;99.90;;;;;;5026603;28;20454;-78
2023/07/29 02:29:01;;;;;;;0.50;0.40;;;18.60;99.90;;;;;;5026393;28;20480;-77
2023/07/29 02:31:29;;;;;;;0.40;0.30;;;18.60;99.90;;;;;;5029148;28;21051;-77
2023/07/29 02:33:56;;;;;;;0.50;0.30;;;18.60;99.90;;;;;;5028939;28;20445;-78
2023/07/29 02:36:23;;;;;;;0.40;0.40;;;18.60;99.90;;;;;;5026102;28;20434;-78
2023/07/29 02:38:49;;;;;;;0.63;0.63;;;18.60;99.90;;;;;;5025951;28;20682;-77
2023/07/29 02:41:16;;;;;;;1.13;1.13;;;18.60;99.90;;;;;;5027184;28;20476;-78
2023/07/29 02:43:43;;;;;;;0.50;0.40;;;18.60;99.90;;;;;;5028201;28;20441;-78
2023/07/29 02:46:10;;;;;;;0.40;0.40;;;18.60;99.90;;;;;;5027307;28;20442;-76
2023/07/29 02:48:38;;;;;;;0.60;0.47;;;18.60;99.90;;;;;;5025190;28;20444;-78
2023/07/29 02:51:05;;;;;;;0.40;0.30;;;18.60;99.90;;;;;;5025237;28;21007;-78
2023/07/29 02:53:32;;;;;;;0.47;0.40;;;18.60;99.90;;;;;;5028903;28;20458;-78
2023/07/29 02:55:59;;;;;;;0.50;0.37;;;18.60;99.90;;;;;;5029427;28;20466;-78
2023/07/29 02:58:26;;;;;;;0.50;0.33;;;18.70;99.90;;;;;;5025511;28;20446;-78
2023/07/29 03:00:52;;;;;;;0.60;0.50;;;18.70;99.90;;;;;;5025290;28;20465;-78
2023/07/29 03:03:19;;;;;;;0.47;0.40;;;18.70;99.90;;;;;;5026591;28;20441;-77
2023/07/29 03:05:48;;;;;;;3.03;1.50;;;18.60;99.90;;;;;;5028505;28;20456;-78
2023/07/29 03:08:14;;;;;;;0.50;0.40;;;18.60;99.90;;;;;;5027079;28;20862;-78
2023/07/29 03:10:41;;;;;;;0.40;0.30;;;18.60;99.90;;;;;;5024554;28;20560;-78
2023/07/29 03:13:08;;;;;;;0.50;0.30;;;18.60;99.90;;;;;;5025307;28;20449;-78
2023/07/29 03:15:35;;;;;;;0.40;0.30;;;18.60;99.90;;;;;;5028086;28;20453;-78
2023/07/29 03:18:02;;;;;;;0.50;0.30;;;18.60;99.90;;;;;;5028487;28;20531;-78
2023/07/29 03:20:28;;;;;;;0.50;0.30;;;18.60;99.90;;;;;;5024371;28;20457;-77
2023/07/29 03:22:56;;;;;;;0.50;0.30;;;18.60;99.90;;;;;;5024719;28;20454;-78
2023/07/29 03:25:23;;;;;;;0.77;0.77;;;18.60;99.90;;;;;;5023635;28;20444;-78
2023/07/29 03:27:50;;;;;;;0.90;0.57;;;18.60;99.90;;;;;;5023991;28;20442;-78
2023/07/29 03:30:20;;;;;;;0.40;0.30;;;18.60;99.90;;;;;;5024721;28;20498;-76
2023/07/29 03:32:47;;;;;;;0.93;0.83;;;18.60;99.90;;;;;;5027656;28;20449;-77
2023/07/29 03:35:14;;;;;;;0.47;0.30;;;18.60;99.90;;;;;;5026861;28;20449;-79
2023/07/29 03:37:41;;;;;;;0.40;0.30;;;18.60;99.90;;;;;;5024868;28;20812;-78
2023/07/29 03:40:10;;;;;;;0.47;0.40;;;18.60;99.90;;;;;;5024538;28;20442;-77
2023/07/29 03:42:37;;;;;;;0.40;0.40;;;18.60;99.90;;;;;;5028035;28;20466;-78
2023/07/29 03:45:04;;;;;;;0.40;0.30;;;18.60;99.90;;;;;;5027277;28;20938;-78
2023/07/29 03:47:31;;;;;;;0.40;0.30;;;18.60;99.90;;;;;;5021984;28;20457;-78
2023/07/29 03:49:58;;;;;;;0.40;0.30;;;18.60;99.90;;;;;;5021767;28;20559;-78
2023/07/29 03:52:24;;;;;;;0.50;0.30;;;18.60;99.90;;;;;;5023713;28;20480;-78
2023/07/29 03:54:51;;;;;;;0.50;0.50;;;18.60;99.90;;;;;;5025263;28;20448;-78
2023/07/29 03:57:19;;;;;;;0.50;0.50;;;18.60;99.90;;;;;;5023250;28;20448;-78
2023/07/29 03:59:46;;;;;;;0.50;0.50;;;18.60;99.90;;;;;;5021117;28;20442;-78
2023/07/29 04:02:13;;;;;;;0.40;0.30;;;18.60;99.90;;;;;;5021641;28;20473;-77
2023/07/29 04:04:41;;;;;;;0.40;0.30;;;18.60;99.90;;;;;;5024944;28;20475;-78
2023/07/29 04:07:08;;;;;;;0.40;0.30;;;18.60;99.90;;;;;;5025087;28;20449;-78
2023/07/29 04:09:35;;;;;;;0.40;0.40;;;18.60;99.90;;;;;;5024697;28;20481;-78
2023/07/29 04:12:02;;;;;;;0.40;0.30;;;18.60;99.90;;;;;;5024534;28;20548;-78
2023/07/29 04:14:30;;;;;;;0.40;0.30;;;18.60;99.90;;;;;;5021249;28;20448;-77
2023/07/29 04:16:57;;;;;;;0.50;0.37;;;18.50;99.90;;;;;;5021271;28;20450;-78
2023/07/29 04:19:24;;;;;;;0.50;0.30;;;18.50;99.90;;;;;;5023089;28;20457;-76
2023/07/29 04:21:51;;;;;;;0.40;0.30;;;18.60;99.90;;;;;;5025020;28;20468;-78
2023/07/29 04:24:20;;;;;;;0.50;0.40;;;18.50;99.90;;;;;;5023301;28;20456;-78
2023/07/29 04:26:46;;;;;;;0.50;0.40;;;18.50;99.90;;;;;;5021522;28;20942;-78
2023/07/29 04:29:13;;;;;;;0.40;0.30;;;18.50;99.90;;;;;;5022090;28;20458;-76
2023/07/29 04:31:42;;;;;;;0.43;0.37;;;18.50;99.90;;;;;;5024527;28;20483;-78
2023/07/29 04:34:09;;;;;;;0.43;0.40;;;18.40;99.90;;;;;;5024094;28;20938;-78
2023/07/29 04:36:36;;;;;;;0.43;0.40;;;18.30;99.90;;;;;;5020652;28;20815;-78
2023/07/29 04:39:03;;;;;;;0.40;0.30;;;18.30;99.90;;;;;;5020906;28;20453;-76
2023/07/29 04:41:30;;;;;;;3.97;3.70;;;18.30;99.90;;;;;;5021990;28;20991;-78
2023/07/29 04:43:56;;;;;;;0.50;0.40;;;18.30;99.90;;;;;;5024057;28;20449;-78
2023/07/29 04:46:23;;;;;;;0.40;0.30;;;18.30;99.90;;;;;;5022882;28;20821;-78
2023/07/29 04:48:51;;;;;;;0.40;0.30;;;18.30;99.90;;;;;;5020731;28;20444;-78
2023/07/29 04:51:18;;;;;;;0.40;0.30;;;18.30;99.90;;;;;;5020825;28;20485;-78
2023/07/29 04:53:45;;;;;;;0.50;0.30;;;18.30;99.90;;;;;;5023732;28;20450;-78
2023/07/29 04:56:12;;;;;;;0.40;0.30;;;18.30;99.90;;;;;;5024272;28;20449;-77
2023/07/29 04:58:39;;;;;;;0.40;0.40;;;18.30;99.90;;;;;;5020752;28;20456;-78
2023/07/29 05:01:06;;;;;;;0.50;0.40;;;18.30;99.90;;;;;;5020424;28;20464;-78
2023/07/29 05:03:32;;;;;;;0.50;0.30;;;18.30;99.90;;;;;;5022205;28;20445;-78
2023/07/29 05:06:01;;;;;;;3.33;2.30;;;18.30;99.90;;;;;;5024922;28;20964;-78
2023/07/29 05:08:27;;;;;;;0.53;0.50;;;18.30;99.90;;;;;;5021464;28;20439;-78
2023/07/29 05:10:54;;;;;;;0.80;0.80;;;18.20;99.90;;;;;;5020353;28;20489;-78
2023/07/29 05:13:23;;;;;;;0.50;0.30;;;18.20;99.90;;;;;;5020371;28;20459;-78
2023/07/29 05:15:50;;;;;;;0.50;0.30;;;18.20;99.90;;;;;;5023704;28;20746;-78
2023/07/29 05:18:18;;;;;;;0.50;0.40;;;18.30;99.90;;;;;;5023213;28;20527;-76
2023/07/29 05:20:45;;;;;;;0.50;0.30;;;18.30;99.90;;;;;;5020211;28;20465;-78
2023/07/29 05:23:13;;;;;;;0.47;0.30;;;18.30;99.90;;;;;;5020225;28;20457;-78
2023/07/29 05:25:40;;;;;;;0.40;0.30;;;18.30;99.90;;;;;;5022934;28;20436;-74
2023/07/29 05:28:07;;;;;;;0.40;0.30;;;18.30;99.90;;;;;;5023185;28;20453;-75
2023/07/29 05:30:37;;;;;;;0.50;0.40;;;18.30;99.90;;;;;;5022715;28;20482;-77
2023/07/29 05:33:04;;;;;;;0.43;0.30;;;18.40;99.90;;;;;;5023191;28;20464;-76
2023/07/29 05:35:30;;;;;;;0.50;0.40;;;18.50;99.90;;;;;;5021047;28;20468;-78
2023/07/29 05:37:57;;;;;;;0.70;0.63;;;18.50;99.90;;;;;;5020185;28;20438;-78
2023/07/29 05:40:25;;;;;;;0.50;0.30;;;18.50;99.90;;;;;;5027990;28;20964;-78
2023/07/29 05:42:52;;;;;;;0.50;0.30;;;18.40;99.90;;;;;;5019845;28;20446;-78
2023/07/29 05:45:19;;;;;;;0.97;0.97;;;18.40;99.90;;;;;;5019470;28;20458;-76
2023/07/29 05:47:46;;;;;;;0.40;0.30;;;18.50;99.90;;;;;;5023198;28;20441;-78
2023/07/29 05:50:13;;;;;;;0.40;0.30;;;18.50;99.90;;;;;;5023393;28;20485;-78
2023/07/29 05:52:39;;;;;;;0.40;0.30;;;18.50;99.90;;;;;;5020627;28;20530;-77
2023/07/29 05:55:07;;;;;;;0.47;0.30;;;18.40;99.90;;;;;;5023682;28;20446;-78
2023/07/29 05:57:35;;;;;;;0.43;0.30;;;18.40;99.90;;;;;;5025445;28;20653;-77
2023/07/29 06:00:02;;;;;;;0.50;0.40;;;18.30;99.90;;;;;;5027013;28;20456;-78
2023/07/29 06:02:29;;;;;;;0.50;0.30;;;18.30;99.90;;;;;;5018284;28;20955;-77
2023/07/29 06:04:56;;;;;;;0.50;0.30;;;18.40;99.90;;;;;;5026917;28;20445;-77
2023/07/29 06:07:22;;;;;;;0.63;0.60;;;18.40;99.90;;;;;;5026255;28;20455;-78
2023/07/29 06:09:49;;;;;;;0.50;0.40;;;18.30;99.90;;;;;;5023301;28;20454;-78
2023/07/29 06:12:16;;;;;;;0.50;0.30;;;18.30;99.90;;;;;;5023258;28;20470;-78
2023/07/29 06:14:44;;;;;;;0.70;0.67;;;18.30;99.90;;;;;;5025890;28;20441;-78
2023/07/29 06:17:12;;;;;;;0.50;0.30;;;18.30;99.90;;;;;;5026580;28;20838;-77
2023/07/29 06:19:39;;;;;;;0.50;0.33;;;18.30;99.90;;;;;;5024376;28;20476;-78
2023/07/29 06:22:06;;;;;;;0.50;0.40;;;18.30;99.90;;;;;;5023302;28;20464;-77
2023/07/29 06:24:34;;;;;;;0.50;0.40;;;18.30;99.90;;;;;;5024453;28;20525;-78
2023/07/29 06:27:03;;;;;;;0.50;0.40;;;18.30;99.90;;;;;;5026507;28;20460;-77
2023/07/29 06:29:29;;;;;;;0.50;0.30;;;18.30;99.90;;;;;;5025449;28;20473;-77
2023/07/29 06:31:59;;;;;;;0.50;0.30;;;18.40;99.90;;;;;;5023223;28;20484;-78
2023/07/29 06:34:25;;;;;;;0.50;0.37;;;18.40;99.90;;;;;;5031154;28;21037;-74
2023/07/29 06:36:52;;;;;;;0.50;0.30;;;18.50;99.90;;;;;;5023096;28;20511;-78
2023/07/29 06:39:19;;;;;;;0.50;0.30;;;18.60;99.90;;;;;;5023263;28;20445;-78
2023/07/29 06:41:46;;;;;;;0.50;0.30;;;18.70;99.90;;;;;;5025821;28;20466;-78
2023/07/29 06:44:12;;;;;;;0.50;0.30;;;18.60;99.90;;;;;;5033299;28;20452;-79
2023/07/29 06:46:39;;;;;;;0.50;0.30;;;18.70;99.90;;;;;;5036128;28;20449;-80
2023/07/29 06:49:08;;;;;;;0.50;0.40;;;18.80;99.90;;;;;;5027096;28;20952;-78
2023/07/29 06:51:35;;;;;;;0.50;0.33;;;18.90;99.90;;;;;;5024884;28;20485;-78
2023/07/29 06:54:02;;;;;;;0.50;0.40;;;19.00;99.90;;;;;;5024913;28;20501;-77
2023/07/29 06:56:29;;;;;;;0.50;0.30;;;19.00;99.90;;;;;;5023363;28;20549;-75
2023/07/29 06:58:56;;;;;;;0.50;0.40;;;19.10;99.90;;;;;;5022948;28;20442;-77
2023/07/29 07:01:23;;;;;;;0.50;0.30;;;19.60;99.90;;;;;;5023532;28;20782;-78
2023/07/29 07:03:50;;;;;;;0.50;0.30;;;20.10;99.90;;;;;;5024987;28;20941;-77
2023/07/29 07:06:18;;;;;;;0.50;0.40;;;20.40;99.90;;;;;;5026223;28;20523;-76
2023/07/29 07:08:44;;;;;;;0.50;0.30;;;20.50;99.90;;;;;;5024213;28;20444;-80
2023/07/29 07:11:11;;;;;;;0.60;0.60;;;20.40;99.90;;;;;;5022908;28;20858;-77
2023/07/29 07:13:38;;;;;;;0.50;0.40;;;20.40;99.90;;;;;;5024457;28;20947;-78
2023/07/29 07:16:05;;;;;;;0.50;0.30;;;20.20;99.90;;;;;;5027501;28;20441;-78
2023/07/29 07:18:32;;;;;;;0.50;0.30;;;20.50;99.90;;;;;;5026599;28;20483;-76
2023/07/29 07:20:58;;;;;;;2.43;0.80;;;20.80;99.90;;;;;;5024783;28;20468;-78
2023/07/29 07:23:27;;;;;;;0.50;0.30;;;21.40;99.90;;;;;;5024148;28;20456;-75
2023/07/29 07:25:53;;;;;;;0.50;0.40;;;22.10;99.90;;;;;;5017750;28;20448;-78
2023/07/29 07:28:20;;;;;;;0.50;0.30;;;23.00;99.90;;;;;;5025899;28;20441;-78
2023/07/29 07:30:47;;;;;;;0.47;0.30;;;23.60;99.90;;;;;;5028494;28;20489;-79
2023/07/29 07:33:14;;;;;;;0.50;0.30;;;23.90;99.90;;;;;;5029233;28;20806;-78
2023/07/29 07:35:42;;;;;;;0.50;0.30;;;23.60;99.90;;;;;;5026358;28;20449;-78
2023/07/29 07:38:09;;;;;;;0.50;0.40;;;23.10;99.90;;;;;;5024349;28;20957;-78
2023/07/29 07:40:37;;;;;;;0.50;0.30;;;22.30;99.90;;;;;;5025297;28;20450;-78
2023/07/29 07:43:04;;;;;;;0.50;0.40;;;22.40;99.90;;;;;;5029451;28;20445;-77
2023/07/29 07:45:33;;;;;;;0.50;0.30;;;22.90;99.90;;;;;;5028556;28;20458;-78
2023/07/29 07:48:00;;;;;;;0.50;0.30;;;23.40;99.90;;;;;;5025340;28;20446;-79
2023/07/29 07:50:29;;;;;;;0.90;0.90;;;23.60;99.90;;;;;;5024466;28;20453;-78
2023/07/29 07:52:56;;;;;;;0.50;0.40;;;23.40;99.90;;;;;;5017244;28;20438;-79
2023/07/29 07:55:22;;;;;;;0.50;0.40;;;23.20;99.90;;;;;;5024682;28;20445;-79
2023/07/29 07:57:51;;;;;;;0.50;0.30;;;23.50;99.90;;;;;;5027516;28;20450;-78
2023/07/29 08:00:19;;;;;;;0.50;0.40;;;22.90;99.90;;;;;;5028347;28;20456;-78
2023/07/29 08:02:45;;;;;;;0.50;0.30;;;22.60;99.90;;;;;;5024584;28;20444;-78
2023/07/29 08:05:12;;;;;;;0.50;0.40;;;22.30;99.90;;;;;;5023811;28;20964;-78
2023/07/29 08:07:39;;;;;;;0.50;0.40;;;22.40;99.90;;;;;;5026225;28;20484;-79
2023/07/29 08:10:07;;;;;;;0.50;0.30;;;23.30;99.90;;;;;;5033401;28;20904;-79
2023/07/29 08:12:34;;;;;;;0.50;0.40;;;23.90;99.90;;;;;;5026004;28;20486;-79
2023/07/29 08:15:02;;;;;;;0.50;0.50;;;24.70;99.90;;;;;;5028451;28;20449;-78
2023/07/29 08:17:29;;;;;;;0.50;0.30;;;25.20;99.90;;;;;;5028298;28;20442;-79
2023/07/29 08:19:56;;;;;;;1.63;1.53;;;25.50;99.90;;;;;;5025984;28;20446;-77
2023/07/29 08:22:23;;;;;;;0.60;0.40;;;25.80;99.90;;;;;;5023700;28;20472;-75
2023/07/29 08:24:49;;;;;;;0.67;0.67;;;25.60;99.90;;;;;;5025363;28;20456;-78
2023/07/29 08:27:16;;;;;;;0.50;0.30;;;25.20;99.90;;;;;;5027396;28;20928;-79
2023/07/29 08:29:43;;;;;;;0.50;0.40;;;25.60;99.90;;;;;;5026448;28;20449;-78
2023/07/29 08:32:11;;;;;;;0.50;0.40;;;26.30;99.90;;;;;;5024846;28;20488;-79
2023/07/29 08:34:38;;;;;;;0.50;0.40;;;26.70;99.90;;;;;;5025048;28;20551;-78
2023/07/29 08:37:05;;;;;;;0.50;0.30;;;27.20;99.90;;;;;;5029562;28;20450;-78
2023/07/29 08:39:32;;;;;;;0.50;0.40;;;27.60;99.90;;;;;;5028390;28;20472;-78
2023/07/29 08:42:04;;;;;;;0.50;0.40;;;27.50;99.90;;;;;;5024794;28;20467;-79
2023/07/29 08:44:35;;;;;;;0.50;0.30;;;27.70;99.90;;;;;;5024520;28;20445;-78
2023/07/29 08:47:03;;;;;;;0.50;0.30;;;27.20;99.90;;;;;;5017660;28;20444;-78
2023/07/29 08:49:33;;;;;;;0.50;0.30;;;27.60;99.90;;;;;;5025509;28;20457;-79
2023/07/29 08:52:00;;;;;;;0.50;0.40;;;28.20;99.90;;;;;;5027785;28;20480;-79
2023/07/29 08:54:27;;;;;;;0.50;0.30;;;28.60;99.80;;;;;;5026960;28;20829;-76
2023/07/29 08:56:54;;;;;;;0.50;0.30;;;27.50;99.10;;;;;;5023787;28;20453;-79
2023/07/29 08:59:21;;;;;;;2.13;0.40;;;26.70;99.90;;;;;;5024983;28;20461;-78
2023/07/29 09:01:48;;;;;;;0.50;0.30;;;26.10;99.90;;;;;;5033909;28;20978;-77
2023/07/29 09:04:15;;;;;;;0.50;0.37;;;26.00;99.90;;;;;;5023435;28;20450;-78
2023/07/29 09:06:45;;;;;;;0.50;0.50;;;26.50;99.90;;;;;;5024122;28;20452;-79
2023/07/29 09:09:12;;;;;;;0.50;0.40;;;26.90;99.90;;;;;;5027622;28;20445;-79
2023/07/29 09:11:39;;;;;;;0.50;0.30;;;27.00;99.90;;;;;;5024979;28;20998;-76
2023/07/29 09:14:05;;;;;;;0.50;0.30;;;26.20;99.90;;;;;;5021928;28;20453;-78
2023/07/29 09:16:33;;;;;;;0.50;0.30;;;26.20;99.90;;;;;;5022377;28;20460;-77
2023/07/29 09:19:03;;;;;;;0.50;0.40;;;26.30;99.90;;;;;;5025768;28;20543;-78
2023/07/29 09:21:30;;;;;;;0.50;0.30;;;26.40;99.90;;;;;;5025043;28;21188;-78
2023/07/29 09:23:58;;;;;;;0.50;0.30;;;26.20;99.90;;;;;;5022105;28;20453;-78
2023/07/29 09:26:26;;;;;;;0.50;0.30;;;26.10;99.90;;;;;;5023192;28;20797;-79
2023/07/29 09:28:53;;;;;;;0.43;0.30;;;26.30;99.90;;;;;;5024425;28;20452;-78
2023/07/29 09:31:21;;;;;;;0.50;0.40;;;27.10;99.90;;;;;;5026791;28;20485;-78
2023/07/29 09:33:48;;;;;;;0.50;0.30;;;27.60;99.90;;;;;;5024792;28;20938;-79
2023/07/29 09:36:15;;;;;;;0.50;0.30;;;26.80;99.90;;;;;;5022778;28;20446;-78
2023/07/29 09:38:42;;;;;;;0.50;0.30;;;26.30;99.90;;;;;;5025301;28;20437;-79
2023/07/29 09:41:13;;;;;;;0.50;0.37;;;25.80;99.90;;;;;;5030799;28;20450;-78
2023/07/29 09:43:40;;;;;;;0.50;0.40;;;25.40;99.90;;;;;;5028762;28;20504;-77
2023/07/29 09:46:07;;;;;;;0.50;0.40;;;24.30;99.90;;;;;;5025921;28;20448;-79
2023/07/29 09:48:35;;;;;;;0.70;0.50;;;23.70;99.90;;;;;;5025940;28;20854;-78
2023/07/29 09:51:11;;;;;;;0.50;0.40;;;23.30;99.90;;;;;;5028492;28;20472;-79
2023/07/29 09:53:41;;;;;;;0.50;0.40;;;23.10;99.90;;;;;;5029564;28;20475;-79
2023/07/29 09:56:08;;;;;;;0.50;0.50;;;22.90;99.90;;;;;;5018437;28;20446;-78
2023/07/29 09:58:37;;;;;;;0.50;0.40;;;22.70;99.90;;;;;;5026225;28;20537;-76
2023/07/29 10:01:04;;;;;;;0.70;0.50;;;22.50;99.90;;;;;;5028950;28;20510;-79
2023/07/29 10:03:33;;;;;;;0.50;0.37;;;22.70;99.90;;;;;;5028977;28;20448;-79
2023/07/29 10:06:02;;;;;;;0.50;0.40;;;23.40;99.90;;;;;;5026994;28;20908;-79
2023/07/29 10:08:31;;;;;;;0.50;0.40;;;24.50;99.90;;;;;;5027415;28;20555;-80
2023/07/29 10:11:00;;;;;;;0.50;0.40;;;25.60;99.90;;;;;;5029537;28;20849;-79
2023/07/29 10:13:27;;;;;;;0.50;0.30;;;26.60;99.90;;;;;;5030769;28;20480;-76
2023/07/29 10:15:55;;;;;;;0.50;0.40;;;27.70;99.90;;;;;;5029909;28;20852;-79
2023/07/29 10:18:23;;;;;;;0.50;0.40;;;27.90;99.90;;;;;;5029056;28;20446;-79
2023/07/29 10:20:52;;;;;;;0.50;0.30;;;27.70;99.90;;;;;;5029087;28;20495;-79
2023/07/29 10:23:19;;;;;;;1.43;0.90;;;27.20;99.90;;;;;;5030957;28;20439;-77
2023/07/29 10:25:51;;;;;;;0.50;0.30;;;27.00;99.90;;;;;;5030040;28;20536;-79
2023/07/29 10:28:21;;;;;;;0.50;0.30;;;27.20;99.90;;;;;;5027462;28;20979;-79
2023/07/29 10:30:48;;;;;;;0.50;0.30;;;27.30;99.90;;;;;;5027418;28;21000;-78
2023/07/29 10:33:17;;;;;;;0.50;0.37;;;27.50;99.90;;;;;;5031319;28;20878;-79
2023/07/29 10:35:43;;;;;;;0.50;0.40;;;27.60;99.90;;;;;;5030579;28;20441;-78
2023/07/29 10:38:11;;;;;;;0.50;0.40;;;27.30;99.90;;;;;;5020330;28;20792;-79
2023/07/29 10:40:48;;;;;;;0.50;0.30;;;27.40;99.90;;;;;;5030310;28;20450;-80
2023/07/29 10:43:24;;;;;;;0.50;0.50;;;27.40;99.90;;;;;;5024064;28;20441;-79
2023/07/29 10:45:51;;;;;;;0.50;0.30;;;26.90;99.90;;;;;;5031183;28;20448;-79
2023/07/29 10:48:43;;;;;;;0.50;0.40;;;26.60;99.90;;;;;;5033623;28;20808;-79
2023/07/29 10:51:29;;;;;;;0.50;0.30;;;25.80;99.90;;;;;;5029686;28;20466;-79
2023/07/29 10:53:57;;;;;;;0.50;0.40;;;25.70;99.90;;;;;;5031576;28;20459;-80
2023/07/29 10:56:32;;;;;;;0.50;0.37;;;25.80;99.90;;;;;;5034299;28;20457;-78
2023/07/29 10:59:03;;;;;;;0.50;0.40;;;25.60;99.90;;;;;;5031381;28;20444;-80
2023/07/29 11:01:32;;;;;;;0.50;0.40;;;25.00;99.90;;;;;;5029434;28;20484;-79
2023/07/29 11:04:27;;;;;;;0.80;0.80;;;25.00;99.90;;;;;;5031547;28;20441;-79
2023/07/29 11:07:27;;;;;;;5.83;5.50;;;25.20;99.90;;;;;;5026716;28;20457;-79
2023/07/29 11:10:05;;;;;;;0.50;0.30;;;26.10;99.90;;;;;;5026495;28;20453;-79
2023/07/29 11:12:35;;;;;;;0.50;0.30;;;27.40;99.90;;;;;;5032303;28;20532;-80
2023/07/29 11:15:04;;;;;;;0.50;0.30;;;28.10;99.90;;;;;;5031841;28;20442;-78
2023/07/29 11:17:34;;;;;;;0.50;0.30;;;27.70;99.90;;;;;;5034621;28;20520;-78
2023/07/29 11:20:03;;;;;;;0.50;0.30;;;27.90;99.90;;;;;;5032756;28;20511;-79
2023/07/29 11:22:30;;;;;;;0.50;0.30;;;27.90;99.90;;;;;;5030161;28;20877;-77
2023/07/29 11:24:57;;;;;;;0.50;0.40;;;27.20;99.90;;;;;;5029551;28;20882;-79
2023/07/29 11:27:24;;;;;;;0.50;0.40;;;26.20;99.90;;;;;;5031878;28;20443;-79
2023/07/29 11:29:51;;;;;;;0.50;0.30;;;25.30;99.90;;;;;;5030556;28;20458;-78
2023/07/29 11:32:18;;;;;;;0.50;0.33;;;24.90;99.90;;;;;;5023326;28;20481;-78
2023/07/29 11:34:44;;;;;;;1.00;0.60;;;24.60;99.90;;;;;;5022916;28;20449;-77
2023/07/29 11:37:13;;;;;;;0.50;0.40;;;23.90;99.90;;;;;;5025998;28;20444;-78
2023/07/29 11:39:41;;;;;;;1.77;1.64;;;23.60;99.90;;;;;;4331127;28;10022408;-77
2023/07/29 11:42:11;;;;;;;0.50;0.40;;;23.70;99.90;;;;;;5019803;28;20225;-78
2023/07/29 11:44:38;;;;;;;0.63;0.57;;;23.80;99.90;;;;;;5018728;28;20444;-79
2023/07/29 11:47:07;;;;;;;0.50;0.30;;;24.40;99.90;;;;;;5021857;28;20447;-78
2023/07/29 11:49:34;;;;;;;1.53;1.53;;;24.70;99.90;;;;;;5026738;28;20448;-78
2023/07/29 11:52:01;;;;;;;0.50;0.30;;;25.40;99.90;;;;;;5022452;28;20482;-78
2023/07/29 11:54:30;;;;;;;0.50;0.30;;;26.20;99.90;;;;;;5020375;28;20458;-76
2023/07/29 11:56:57;;;;;;;0.50;0.30;;;26.90;99.90;;;;;;5013783;28;20437;-79
2023/07/29 11:59:24;;;;;;;0.50;0.30;;;27.10;99.90;;;;;;5023940;28;20898;-79
2023/07/29 12:01:52;;;;;;;0.50;0.40;;;26.90;99.90;;;;;;5016578;28;20466;-78
2023/07/29 12:04:19;;;;;;;0.50;0.40;;;27.10;99.90;;;;;;5008254;28;20452;-80
2023/07/29 12:06:46;;;;;;;0.60;0.40;;;27.90;99.90;;;;;;5026583;28;20452;-80
2023/07/29 12:09:13;;;;;;;0.50;0.30;;;27.80;99.90;;;;;;5020281;28;20446;-79
2023/07/29 12:11:42;;;;;;;0.50;0.30;;;27.30;99.90;;;;;;5024146;28;20477;-80
2023/07/29 12:14:09;;;;;;;0.50;0.30;;;26.90;99.90;;;;;;5037369;28;20452;-79
2023/07/29 12:16:42;;;;;;;0.50;0.40;;;26.60;99.90;;;;;;5033409;28;20478;-80
2023/07/29 12:19:08;;;;;;;0.50;0.30;;;26.80;99.90;;;;;;5028829;28;20438;-80
2023/07/29 12:21:36;;;;;;;0.50;0.30;;;26.90;99.90;;;;;;5029136;28;20473;-80
2023/07/29 12:24:04;;;;;;;0.50;0.30;;;26.20;99.90;;;;;;5027852;28;20867;-80
2023/07/29 12:26:31;;;;;;;0.57;0.47;;;26.10;99.90;;;;;;5033773;28;20449;-79
2023/07/29 12:28:59;;;;;;;0.80;0.50;;;26.60;99.90;;;;;;5030155;28;20440;-79
2023/07/29 12:31:33;;;;;;;0.50;0.30;;;26.30;99.90;;;;;;5026756;28;20497;-78
2023/07/29 12:33:59;;;;;;;0.50;0.30;;;25.90;99.90;;;;;;5026749;28;20485;-79
2023/07/29 12:36:40;;;;;;;0.50;0.40;;;26.30;99.90;;;;;;5031197;28;20449;-79
2023/07/29 12:39:16;;;;;;;0.50;0.30;;;26.80;99.90;;;;;;5028808;28;20790;-79
2023/07/29 12:41:43;;;;;;;0.50;0.30;;;26.40;99.90;;;;;;5026409;28;20465;-79
2023/07/29 12:44:11;;;;;;;0.60;0.60;;;26.60;99.90;;;;;;5025899;28;20449;-79
2023/07/29 12:46:38;;;;;;;0.50;0.50;;;26.80;99.90;;;;;;5026292;28;20448;-78
2023/07/29 12:49:04;;;;;;;0.50;0.30;;;26.30;99.90;;;;;;5022999;28;20879;-77